Time;durP1;ratioP1;P1;durP2;ratioP2;P2;SDS_P1;SDS_P2;PMS_P1;PMS_P2;Temp;Humidity;BMP_temperature;BMP_pressure;BME280_temperature;BME280_humidity;BME280_pressure;Samples;Min_cycle;Max_cycle;Signal;HPM_P1;HPM_P2
2023/08/22 00:00:33;;;;;;;;;;;22.10;99.90;;;;;;20732188;28;19917;-84
2023/08/22 00:10:34;;;;;;;;;;;22.00;99.90;;;;;;20757203;28;20287;-85
2023/08/22 00:20:36;;;;;;;;;;;21.80;99.90;;;;;;20750851;28;19924;-86
2023/08/22 00:30:36;;;;;;;;;;;21.70;99.90;;;;;;20758522;28;19921;-85
2023/08/22 00:40:37;;;;;;;;;;;21.60;99.90;;;;;;20738762;28;19965;-83
2023/08/22 00:50:38;;;;;;;;;;;21.40;99.90;;;;;;20746828;28;20370;-86
2023/08/22 01:00:38;;;;;;;;;;;21.30;99.90;;;;;;20736106;28;19917;-85
2023/08/22 01:10:42;;;;;;;;;;;21.40;99.90;;;;;;20749751;28;19918;-85
2023/08/22 01:20:44;;;;;;;;;;;21.20;99.90;;;;;;20731748;28;19925;-84
2023/08/22 01:30:55;;;;;;;;;;;21.40;99.90;;;;;;20726625;28;19920;-85
2023/08/22 01:40:57;;;;;;;;;;;21.20;99.90;;;;;;20733982;28;19922;-85
2023/08/22 01:50:59;;;;;;;;;;;20.90;99.90;;;;;;20714272;28;19913;-84
2023/08/22 02:01:07;;;;;;;;;;;20.90;99.90;;;;;;20746303;28;19925;-84
2023/08/22 02:11:08;;;;;;;;;;;20.90;99.90;;;;;;20741084;28;19920;-84
2023/08/22 02:21:09;;;;;;;;;;;20.90;99.90;;;;;;20716752;28;19918;-85
2023/08/22 02:31:09;;;;;;;;;;;20.90;99.90;;;;;;20723886;28;19914;-86
2023/08/22 02:41:10;;;;;;;;;;;20.60;99.90;;;;;;20733193;28;20018;-85
2023/08/22 02:51:11;;;;;;;;;;;20.60;99.90;;;;;;20732069;28;20349;-84
2023/08/22 03:01:12;;;;;;;;;;;20.50;99.90;;;;;;20742028;28;19917;-85
2023/08/22 03:11:13;;;;;;;;;;;20.30;99.90;;;;;;20742393;28;19921;-85
2023/08/22 03:21:14;;;;;;;;;;;20.20;99.90;;;;;;20770400;28;19975;-85
2023/08/22 03:31:15;;;;;;;;;;;20.00;99.90;;;;;;20739746;28;19913;-85
2023/08/22 03:41:19;;;;;;;;;;;20.00;99.90;;;;;;20729424;28;19924;-83
2023/08/22 03:51:22;;;;;;;;;;;19.90;99.90;;;;;;20764568;28;19913;-85
2023/08/22 04:01:22;;;;;;;;;;;19.80;99.90;;;;;;20755262;28;20405;-85
2023/08/22 04:11:23;;;;;;;;;;;19.80;99.90;;;;;;20749181;28;19914;-84
2023/08/22 04:21:24;;;;;;;;;;;19.60;99.90;;;;;;20765116;28;19917;-85
2023/08/22 04:31:25;;;;;;;;;;;19.60;99.90;;;;;;20763228;28;20008;-83
2023/08/22 04:41:26;;;;;;;;;;;19.60;99.90;;;;;;20737050;28;19917;-84
2023/08/22 04:51:41;;;;;;;;;;;19.60;99.90;;;;;;20755396;28;19918;-84
2023/08/22 05:01:41;;;;;;;;;;;19.60;99.90;;;;;;20732205;28;19917;-87
2023/08/22 05:11:43;;;;;;;;;;;19.80;99.90;;;;;;20769327;28;19989;-84
2023/08/22 05:21:44;;;;;;;;;;;19.90;99.90;;;;;;20742523;28;19925;-85
2023/08/22 05:31:46;;;;;;;;;;;20.30;99.90;;;;;;20762059;28;20005;-86
2023/08/22 05:41:46;;;;;;;;;;;20.70;99.90;;;;;;20717428;28;20018;-86
2023/08/22 05:51:48;;;;;;;;;;;21.10;99.90;;;;;;20758656;28;19961;-86
2023/08/22 06:01:49;;;;;;;;;;;21.50;99.90;;;;;;20748158;28;20405;-87
2023/08/22 06:11:51;;;;;;;;;;;22.10;99.90;;;;;;20752543;28;20314;-85
2023/08/22 06:21:52;;;;;;;;;;;22.50;99.90;;;;;;20743151;28;19960;-85
2023/08/22 06:31:55;;;;;;;;;;;22.90;99.90;;;;;;20740904;28;19920;-87
2023/08/22 06:41:56;;;;;;;;;;;23.60;99.90;;;;;;20754447;28;20611;-85
2023/08/22 06:51:59;;;;;;;;;;;24.10;99.90;;;;;;20762782;28;19921;-87
2023/08/22 07:01:59;;;;;;;;;;;24.90;99.90;;;;;;20732836;28;19924;-86
2023/08/22 07:12:00;;;;;;;;;;;25.20;99.90;;;;;;20751914;28;20401;-86
2023/08/22 07:22:01;;;;;;;;;;;25.70;99.90;;;;;;20756992;28;19921;-86
2023/08/22 07:32:02;;;;;;;;;;;26.60;99.90;;;;;;20743435;28;19960;-87
2023/08/22 07:42:04;;;;;;;;;;;26.50;99.90;;;;;;20745598;28;19957;-86
2023/08/22 07:52:05;;;;;;;;;;;27.30;99.90;;;;;;20729418;28;20106;-88
2023/08/22 08:02:06;;;;;;;;;;;28.20;99.90;;;;;;20728808;28;19917;-88
2023/08/22 08:12:07;;;;;;;;;;;28.30;99.90;;;;;;20772800;28;19914;-87
2023/08/22 08:22:07;;;;;;;;;;;29.10;99.90;;;;;;20727832;28;19918;-87
2023/08/22 08:32:08;;;;;;;;;;;29.30;99.90;;;;;;20741718;28;19913;-87
2023/08/22 08:42:12;;;;;;;;;;;30.90;99.90;;;;;;20750220;28;20267;-88
2023/08/22 08:52:15;;;;;;;;;;;31.20;99.90;;;;;;20725805;28;19913;-89
2023/08/22 09:02:16;;;;;;;;;;;32.40;99.90;;;;;;20758283;28;19921;-89
2023/08/22 09:12:17;;;;;;;;;;;32.60;99.90;;;;;;20742424;28;20020;-88
2023/08/22 09:22:18;;;;;;;;;;;32.80;99.90;;;;;;20739512;28;19918;-88
2023/08/22 09:32:19;;;;;;;;;;;32.30;99.90;;;;;;20738719;28;19941;-89
2023/08/22 09:42:20;;;;;;;;;;;32.90;99.90;;;;;;20722767;28;19956;-88
2023/08/22 09:52:21;;;;;;;;;;;33.50;99.90;;;;;;20729676;28;19917;-87
2023/08/22 10:02:22;;;;;;;;;;;34.20;99.90;;;;;;20737452;28;19959;-89
2023/08/22 10:12:24;;;;;;;;;;;33.80;99.90;;;;;;20706877;28;19913;-87
2023/08/22 10:22:30;;;;;;;;;;;34.10;99.90;;;;;;20721035;28;19980;-89
2023/08/22 10:32:31;;;;;;;;;;;34.40;99.90;;;;;;20747756;28;20370;-91
2023/08/22 10:42:31;;;;;;;;;;;35.20;99.90;;;;;;20738747;28;19921;-87
2023/08/22 10:52:32;;;;;;;;;;;35.70;97.30;;;;;;20742226;28;19913;-88
2023/08/22 11:02:34;;;;;;;;;;;34.90;97.70;;;;;;20750064;28;19918;-88
2023/08/22 11:12:35;;;;;;;;;;;35.50;94.90;;;;;;20733094;28;19913;-88
2023/08/22 11:22:35;;;;;;;;;;;35.20;95.30;;;;;;20748180;28;19911;-89
2023/08/22 11:32:38;;;;;;;;;;;35.60;96.70;;;;;;20739293;28;19914;-87
2023/08/22 11:42:39;;;;;;;;;;;35.60;95.20;;;;;;20751691;28;19918;-88
2023/08/22 11:52:40;;;;;;;;;;;35.40;94.70;;;;;;20729003;28;19913;-88
2023/08/22 12:02:51;;;;;;;;;;;35.20;94.50;;;;;;20743467;28;20408;-87
2023/08/22 12:12:52;;;;;;;;;;;35.40;95.60;;;;;;20775822;28;19977;-88
2023/08/22 12:22:53;;;;;;;;;;;35.00;94.00;;;;;;20760000;28;19979;-85
2023/08/22 12:32:53;;;;;;;;;;;35.30;92.90;;;;;;20682145;28;19918;-88
2023/08/22 12:42:54;;;;;;;;;;;35.20;92.60;;;;;;20705936;28;20366;-86
2023/08/22 12:52:55;;;;;;;;;;;35.90;91.50;;;;;;20791112;28;20005;-89
2023/08/22 13:02:56;;;;;;;;;;;37.50;89.50;;;;;;20757584;28;19956;-86
2023/08/22 13:12:57;;;;;;;;;;;35.60;89.20;;;;;;20740478;28;19956;-86
2023/08/22 13:22:58;;;;;;;;;;;35.80;90.40;;;;;;20758843;28;19924;-89
2023/08/22 13:33:01;;;;;;;;;;;35.90;91.00;;;;;;20742680;28;20500;-88
2023/08/22 13:43:03;;;;;;;;;;;36.00;91.20;;;;;;20739810;28;19917;-87
2023/08/22 13:53:04;;;;;;;;;;;36.00;91.30;;;;;;20757192;28;20285;-86
2023/08/22 14:03:05;;;;;;;;;;;36.60;88.90;;;;;;20722396;28;20263;-86
2023/08/22 14:13:05;;;;;;;;;;;36.50;88.30;;;;;;20724526;28;20383;-89
2023/08/22 14:23:06;;;;;;;;;;;36.40;90.50;;;;;;20746173;28;19925;-88
2023/08/22 14:33:07;;;;;;;;;;;37.00;88.10;;;;;;20752248;28;19925;-88
2023/08/22 14:43:08;;;;;;;;;;;36.30;90.00;;;;;;20728832;28;19924;-87
2023/08/22 14:53:13;;;;;;;;;;;36.70;91.10;;;;;;20758529;28;19914;-86
2023/08/22 15:03:14;;;;;;;;;;;35.80;90.40;;;;;;20776608;28;19924;-86
2023/08/22 15:13:14;;;;;;;;;;;36.70;90.10;;;;;;20747824;28;20366;-86
2023/08/22 15:23:15;;;;;;;;;;;36.60;90.40;;;;;;20759705;28;19917;-84
2023/08/22 15:33:16;;;;;;;;;;;36.40;90.70;;;;;;20789166;28;19918;-87
2023/08/22 15:43:18;;;;;;;;;;;35.90;91.80;;;;;;20704344;28;19917;-87
2023/08/22 15:53:18;;;;;;;;;;;35.70;91.00;;;;;;20757453;28;19915;-87
2023/08/22 16:03:19;;;;;;;;;;;35.50;91.70;;;;;;20750203;28;19917;-87
2023/08/22 16:13:20;;;;;;;;;;;35.10;92.60;;;;;;20765661;28;19935;-86
2023/08/22 16:23:22;;;;;;;;;;;34.80;93.30;;;;;;20720939;28;19918;-86
2023/08/22 16:33:22;;;;;;;;;;;34.40;93.50;;;;;;20760488;28;19925;-86
2023/08/22 18:32:57;;;;;;;;;;;29.60;99.90;;;;;;21459375;22;19923;-85
2023/08/22 18:42:58;;;;;;;;;;;29.00;99.90;;;;;;21178488;27;19922;-84
2023/08/22 18:52:59;;;;;;;;;;;28.40;99.90;;;;;;21173352;27;20383;-85
2023/08/22 19:45:50;;;;;;;;;;;26.70;99.90;;;;;;21220901;22;20384;-82
2023/08/22 19:55:51;;;;;;;;;;;26.80;99.90;;;;;;21079758;28;20288;-84
2023/08/22 20:05:56;;;;;;;;;;;26.20;99.90;;;;;;21038305;28;19927;-83
2023/08/22 20:15:57;;;;;;;;;;;26.00;99.90;;;;;;21096287;28;19928;-84
2023/08/22 20:25:58;;;;;;;;;;;26.00;99.90;;;;;;21079743;28;19920;-82
2023/08/22 20:36:00;;;;;;;;;;;25.60;99.90;;;;;;21082806;28;19918;-83
2023/08/22 20:46:02;;;;;;;;;;;25.40;99.90;;;;;;21101487;28;19915;-82
2023/08/22 20:56:03;;;;;;;;;;;25.30;99.90;;;;;;21065230;28;19916;-83
2023/08/22 21:06:07;;;;;;;;;;;25.10;99.90;;;;;;21082239;28;20003;-83
2023/08/22 21:16:07;;;;;;;;;;;25.10;99.90;;;;;;21092831;28;19912;-83
2023/08/22 21:26:08;;;;;;;;;;;24.80;99.90;;;;;;21072709;28;19962;-83
2023/08/22 21:36:11;;;;;;;;;;;24.50;99.90;;;;;;21069853;28;19962;-82
2023/08/22 21:46:11;;;;;;;;;;;24.40;99.90;;;;;;21090618;28;19948;-81
2023/08/22 21:56:12;;;;;;;;;;;24.10;99.90;;;;;;21073153;28;19958;-83
2023/08/22 22:06:13;;;;;;;;;;;24.10;99.90;;;;;;21094023;28;19978;-83
2023/08/22 22:16:13;;;;;;;;;;;23.90;99.90;;;;;;21090811;28;20351;-82
2023/08/22 22:26:14;;;;;;;;;;;23.80;99.90;;;;;;21057684;28;20014;-81
2023/08/22 22:36:17;;;;;;;;;;;23.80;99.90;;;;;;21032220;28;19912;-81
2023/08/22 22:46:17;;;;;;;;;;;23.70;99.90;;;;;;21026507;28;19971;-81
2023/08/22 22:56:18;;;;;;;;;;;23.60;99.90;;;;;;21093873;28;19916;-82
2023/08/22 23:06:19;;;;;;;;;;;23.50;99.90;;;;;;21083972;28;20019;-83
2023/08/22 23:16:19;;;;;;;;;;;23.60;99.90;;;;;;21022350;28;19916;-82
2023/08/22 23:26:20;;;;;;;;;;;23.40;99.90;;;;;;21021723;28;19924;-82
2023/08/22 23:36:21;;;;;;;;;;;23.20;99.90;;;;;;21005260;28;19938;-83
2023/08/22 23:46:21;;;;;;;;;;;23.20;99.90;;;;;;21018270;28;20339;-83
2023/08/22 23:56:24;;;;;;;;;;;23.10;99.90;;;;;;21016868;28;19918;-83
